Flight Track Log - Related Links

Times and Time Zones

All times are in EDT time to prevent confusion due to time zone crossing. See the GJS3710 flight status page for this flight to view local times or setup timezone preferences in your user account.

Time Position Orientation Groundspeed Altitude Reporting Facility
EDT Latitude Longitude Course Direction KTS MPH feet Rate Location/Type
Sat 05:14:34 PM 39.8764 -104.6025 79° East 160 184 6,900  Level Denver Center
Sat 05:15:35 PM 39.8892 -104.5311 77° East 206 237 8,900 1,854 Climbing Denver Center
Sat 05:16:37 PM 39.9075 -104.4364 76° East 252 290 10,700 1,659 Climbing Denver Center
Sat 05:17:00 PM 39.9521 -104.1133 73° East  Level FlightAware Approximate
Sat 05:17:38 PM 39.9256 -104.3317 77° East 291 335 12,300  Level Denver Center
Sat 05:18:00 PM 39.9697 -103.9741 66° East  Level FlightAware Approximate
Sat 05:18:40 PM 39.9458 -104.2133 77° East 331 381 13,800  Level Denver Center
Sat 05:19:00 PM 39.9972 -103.8366 79° East  Level FlightAware Approximate
Sat 05:19:41 PM 39.9706 -104.0703 77° East 372 428 15,500  Level Denver Center
Sat 05:20:00 PM 40.0255 -103.7053 79° East  Level FlightAware Approximate
Sat 05:20:43 PM 39.9936 -103.9314 78° East 391 450 17,500  Level Denver Center
Sat 05:21:44 PM 40.0183 -103.7875 77° East 405 466 19,500 1,854 Climbing Denver Center
Sat 05:22:46 PM 40.0400 -103.6503 78° East 396 456 21,300 1,632 Climbing Denver Center
Sat 05:24:00 PM 40.0689 -103.4839 77° East 418 481 23,200 1,689 Climbing Denver Center
Sat 05:25:01 PM 40.1003 -103.2844 78° East 437 503 25,100 1,659 Climbing Denver Center
Sat 05:26:03 PM 40.1244 -103.1319 78° East 446 513 26,600 1,403 Climbing Denver Center
Sat 05:27:05 PM 40.1489 -102.9783 78° East 449 517 28,000 1,317 Climbing Denver Center
Sat 05:28:06 PM 40.1769 -102.7961 79° East 456 525 29,300 1,171 Climbing Denver Center
Sat 05:29:08 PM 40.2011 -102.6369 79° East 464 534 30,400 1,122 Climbing Denver Center
Sat 05:30:09 PM 40.2300 -102.4500 78° East 470 541 31,600 1,122 Climbing Denver Center
Sat 05:31:11 PM 40.2547 -102.2883 79° East 474 545 32,700 1,122 Climbing Denver Center
Sat 05:32:12 PM 40.2828 -102.0992 79° East 474 545 33,900 1,122 Climbing Denver Center
Sat 05:33:14 PM 40.3078 -101.9386 78° East 471 542 35,000 726 Climbing Denver Center
Sat 05:34:16 PM 40.3317 -101.7756 79° East 475 547 35,400 780 Climbing Denver Center
Sat 05:35:17 PM 40.3594 -101.5833 79° East 480 552 36,600 780 Climbing Denver Center
Sat 05:36:19 PM 40.3839 -101.4214 79° East 476 548 37,000 195 Climbing Denver Center
Sat 05:37:20 PM 40.4103 -101.2244 80° East 490 564 37,000  Level Denver Center
Sat 05:38:21 PM 40.4303 -101.0819 80° East 497 572 37,000  Level Denver Center
Sat 05:39:23 PM 40.4661 -100.8606 78° East 490 564 37,000  Level Denver Center
Sat 05:40:25 PM 40.5017 -100.6986 74° East 487 560 37,000  Level Denver Center
Sat 05:41:26 PM 40.5414 -100.5094 74° East 485 558 37,000  Level Denver Center
Sat 05:42:28 PM 40.5764 -100.3481 74° East 485 558 37,000  Level Denver Center
Sat 05:43:29 PM 40.6100 -100.1850 75° East 486 559 37,000  Level Denver Center
Sat 05:44:31 PM 40.6497 -99.9981 74° East 480 552 37,000  Level Denver Center
Sat 05:45:32 PM 40.6828 -99.8344 75° East 479 551 37,000 -488 Level Denver Center
Sat 05:46:34 PM 40.7186 -99.6642 74° East 482 555 36,000 -976 Descending Denver Center
Sat 05:47:35 PM 40.7522 -99.4936 75° East 483 556 35,000 -488 Descending Denver Center
Sat 05:48:37 PM 40.7867 -99.3239 75° East 481 554 35,000  Level Denver Center
Sat 05:49:38 PM 40.8269 -99.1231 75° East 476 548 35,000  Level Denver Center
Sat 05:50:40 PM 40.8558 -98.9706 76° East 475 547 35,000  Level Denver Center
Sat 05:51:41 PM 40.8939 -98.7817 75° East 477 549 35,000 -585 Level Denver Center
Sat 05:52:43 PM 40.9239 -98.6206 76° East 477 549 33,800 -1,463 Descending Denver Center
Sat 05:53:44 PM 40.9586 -98.4500 75° East 485 558 32,000 -1,814 Descending Denver Center
Sat 05:54:52 PM 41.0019 -98.2433 74° East 489 563 29,900 -1,628 Descending Minneapolis Center
Sat 05:55:53 PM 41.0383 -98.1094 70° East 487 560 28,500 -1,561 Descending Minneapolis Center
Sat 05:56:55 PM 41.0919 -97.9103 70° East 482 555 26,700 -1,610 Descending Minneapolis Center
Sat 05:57:56 PM 41.1356 -97.7481 70° East 473 544 25,200 -1,610 Descending Minneapolis Center
Sat 05:58:58 PM 41.1858 -97.5572 71° East 462 532 23,400 -1,610 Descending Minneapolis Center
Sat 05:59:59 PM 41.2261 -97.3983 71° East 457 526 21,900 -1,475 Descending Minneapolis Center
Sat 06:01:00 PM 41.2683 -97.2397 70° East 449 517 20,400 -1,512 Descending Minneapolis Center
Sat 06:02:02 PM 41.2944 -97.0869 77° East 440 506 18,800 -1,459 Descending Minneapolis Center
Sat 06:02:51 PM 41.3258 -96.9731 70° East 429 494 17,700 -1,479 Descending Minneapolis Center
Sat 06:03:15 PM 41.3533 -96.9100 60° Northeast 420 483 17,000 -1,400 Descending Minneapolis Center
Sat 06:03:51 PM 41.3494 -96.8375 94° East 362 417 16,300 -1,475 Descending Minneapolis Center
Sat 06:04:16 PM 41.3542 -96.7794 84° East 366 421 15,500 -2,066 Descending Minneapolis Center
Sat 06:04:52 PM 41.3519 -96.7014 92° East 345 397 14,200 -1,839 Descending Minneapolis Center
Sat 06:05:18 PM 41.3669 -96.6556 66° East 343 395 13,600 -1,700 Descending Minneapolis Center
Sat 06:05:52 PM 41.3719 -96.5825 85° East 330 380 12,500 -1,967 Descending Minneapolis Center
Sat 06:06:19 PM 41.3856 -96.5375 68° East 331 381 11,600 -2,459 Descending Minneapolis Center
Sat 06:06:53 PM 41.3883 -96.4697 87° East 310 357 10,000 -2,459 Descending Minneapolis Center
Sat 06:07:20 PM 41.4017 -96.4258 68° East 314 361 9,100 -2,557 Descending Minneapolis Center
Sat 06:07:54 PM 41.4064 -96.3594 85° East 302 348 7,400 -2,323 Descending Minneapolis Center
Sat 06:08:22 PM 41.4172 -96.3153 72° East 306 352 6,700 -2,400 Descending Minneapolis Center
Sat 06:08:54 PM 41.4231 -96.2550 83° East 290 334 5,000 -2,361 Descending Minneapolis Center
Sat 06:09:23 PM 41.4328 -96.2133 73° East 295 339 4,300 -1,869 Descending Minneapolis Center
Sat 06:09:55 PM 41.4378 -96.1589 83° East 262 302 3,100 -1,279 Descending Minneapolis Center
Sat 06:10:24 PM 41.4411 -96.1200 83° East 269 310 3,000  Descending Minneapolis Center
Sat 06:10:55 PM 41.4411 -96.0778 90° East 192 221 3,100  Climbing Minneapolis Center
Sat 06:11:25 PM 41.4394 -96.0469 94° East 223 257 3,000 -98 Descending Minneapolis Center
Sat 06:11:56 PM 41.4225 -96.0186 129° Southeast 170 196 3,000  Level Minneapolis Center
Sat 06:12:26 PM 41.4094 -95.9933 125° Southeast 192 221 3,000 -295 Level Minneapolis Center
Sat 06:12:57 PM 41.3822 -95.9789 158° South 161 185 2,700 -581 Descending Minneapolis Center

Login

Don't have an account? Register now (free) for customized features, flight alerts, and more!